sensor_id;sensor_type;location;lat;lon;timestamp;pressure;altitude;pressure_sealevel;temperature;humidity
52797;BME280;38666;43.348;12.584;2023-02-03T06:54:11;96682.88;;;1.40;100.00
52797;BME280;38666;43.348;12.584;2023-02-03T06:56:37;96683.22;;;1.47;100.00
52797;BME280;38666;43.348;12.584;2023-02-03T06:59:02;96678.97;;;1.64;100.00
52797;BME280;38666;43.348;12.584;2023-02-03T07:01:28;96688.63;;;1.83;100.00
52797;BME280;38666;43.348;12.584;2023-02-03T07:03:54;96691.78;;;2.02;100.00
52797;BME280;38666;43.348;12.584;2023-02-03T07:06:23;96690.16;;;2.19;100.00
52797;BME280;38666;43.348;12.584;2023-02-03T07:08:48;96692.38;;;2.35;100.00
52797;BME280;38666;43.348;12.584;2023-02-03T07:11:13;96696.59;;;2.53;100.00
52797;BME280;38666;43.348;12.584;2023-02-03T07:13:39;96701.59;;;2.73;100.00
52797;BME280;38666;43.348;12.584;2023-02-03T07:16:05;96701.69;;;2.94;100.00
52797;BME280;38666;43.348;12.584;2023-02-03T07:18:31;96698.56;;;3.13;100.00
52797;BME280;38666;43.348;12.584;2023-02-03T07:20:56;96702.53;;;3.16;100.00
52797;BME280;38666;43.348;12.584;2023-02-03T07:23:21;96706.91;;;3.30;100.00
52797;BME280;38666;43.348;12.584;2023-02-03T07:25:47;96707.47;;;3.44;100.00
52797;BME280;38666;43.348;12.584;2023-02-03T07:28:13;96705.84;;;3.52;100.00
52797;BME280;38666;43.348;12.584;2023-02-03T07:30:38;96716.72;;;3.65;100.00
52797;BME280;38666;43.348;12.584;2023-02-03T07:33:04;96718.66;;;3.34;100.00
52797;BME280;38666;43.348;12.584;2023-02-03T07:35:29;96734.94;;;3.16;100.00
52797;BME280;38666;43.348;12.584;2023-02-03T07:37:54;96734.38;;;2.93;100.00
52797;BME280;38666;43.348;12.584;2023-02-03T07:40:20;96736.75;;;2.94;100.00
52797;BME280;38666;43.348;12.584;2023-02-03T07:42:47;96738.94;;;3.01;100.00
52797;BME280;38666;43.348;12.584;2023-02-03T07:45:14;96745.78;;;3.07;99.70
52797;BME280;38666;43.348;12.584;2023-02-03T07:47:41;96745.38;;;3.27;98.52
52797;BME280;38666;43.348;12.584;2023-02-03T07:50:08;96739.78;;;3.32;98.83
52797;BME280;38666;43.348;12.584;2023-02-03T07:52:34;96729.34;;;3.52;98.63
52797;BME280;38666;43.348;12.584;2023-02-03T07:55:00;96718.81;;;3.59;96.16
52797;BME280;38666;43.348;12.584;2023-02-03T07:57:26;96717.50;;;3.65;95.23
52797;BME280;38666;43.348;12.584;2023-02-03T07:59:51;96708.41;;;3.70;95.78
52797;BME280;38666;43.348;12.584;2023-02-03T08:02:17;96702.06;;;3.87;96.13
52797;BME280;38666;43.348;12.584;2023-02-03T08:04:42;96716.53;;;3.91;95.32
52797;BME280;38666;43.348;12.584;2023-02-03T08:07:07;96716.31;;;3.96;95.82
52797;BME280;38666;43.348;12.584;2023-02-03T08:09:33;96714.72;;;3.95;94.73
52797;BME280;38666;43.348;12.584;2023-02-03T08:11:58;96714.84;;;3.99;94.98
52797;BME280;38666;43.348;12.584;2023-02-03T08:14:24;96713.56;;;3.84;94.36
52797;BME280;38666;43.348;12.584;2023-02-03T08:16:49;96726.84;;;4.11;94.23
52797;BME280;38666;43.348;12.584;2023-02-03T08:19:15;96723.56;;;4.39;92.74
52797;BME280;38666;43.348;12.584;2023-02-03T08:21:40;96733.44;;;4.56;91.54
52797;BME280;38666;43.348;12.584;2023-02-03T08:24:06;96732.06;;;4.50;91.44
52797;BME280;38666;43.348;12.584;2023-02-03T08:26:31;96748.97;;;4.47;92.85
52797;BME280;38666;43.348;12.584;2023-02-03T08:28:56;96755.03;;;4.43;93.57
52797;BME280;38666;43.348;12.584;2023-02-03T08:31:22;96760.31;;;4.61;93.63
52797;BME280;38666;43.348;12.584;2023-02-03T08:33:47;96764.50;;;4.71;92.91
52797;BME280;38666;43.348;12.584;2023-02-03T08:36:13;96762.94;;;4.82;90.80
52797;BME280;38666;43.348;12.584;2023-02-03T08:38:39;96760.75;;;4.76;90.67
52797;BME280;38666;43.348;12.584;2023-02-03T08:41:13;96764.56;;;4.62;93.03
52797;BME280;38666;43.348;12.584;2023-02-03T08:43:39;96776.81;;;4.93;92.47
52797;BME280;38666;43.348;12.584;2023-02-03T08:46:06;96765.91;;;5.15;91.58
52797;BME280;38666;43.348;12.584;2023-02-03T08:48:32;96778.47;;;5.45;90.62
52797;BME280;38666;43.348;12.584;2023-02-03T08:50:58;96787.72;;;5.69;88.68
52797;BME280;38666;43.348;12.584;2023-02-03T08:53:23;96795.59;;;5.74;87.21
52797;BME280;38666;43.348;12.584;2023-02-03T08:55:49;96804.66;;;5.65;86.79
52797;BME280;38666;43.348;12.584;2023-02-03T08:58:15;96808.69;;;5.84;85.02
52797;BME280;38666;43.348;12.584;2023-02-03T09:00:41;96821.94;;;5.73;83.94
52797;BME280;38666;43.348;12.584;2023-02-03T09:03:06;96838.63;;;5.88;84.14
52797;BME280;38666;43.348;12.584;2023-02-03T09:05:32;96828.91;;;6.12;83.61
52797;BME280;38666;43.348;12.584;2023-02-03T09:07:58;96834.22;;;6.21;85.19
52797;BME280;38666;43.348;12.584;2023-02-03T09:10:23;96828.75;;;6.33;84.28
52797;BME280;38666;43.348;12.584;2023-02-03T09:12:49;96810.38;;;6.55;84.63
52797;BME280;38666;43.348;12.584;2023-02-03T09:15:14;96811.59;;;6.86;81.40
52797;BME280;38666;43.348;12.584;2023-02-03T09:17:39;96803.63;;;6.94;80.88
52797;BME280;38666;43.348;12.584;2023-02-03T09:20:05;96808.19;;;6.90;80.70
52797;BME280;38666;43.348;12.584;2023-02-03T09:22:31;96808.50;;;6.72;82.12
52797;BME280;38666;43.348;12.584;2023-02-03T09:24:57;96822.81;;;6.56;84.13
52797;BME280;38666;43.348;12.584;2023-02-03T09:27:22;96818.53;;;6.55;85.61
52797;BME280;38666;43.348;12.584;2023-02-03T09:29:48;96816.84;;;6.50;85.63
52797;BME280;38666;43.348;12.584;2023-02-03T09:32:13;96813.47;;;6.41;88.10
52797;BME280;38666;43.348;12.584;2023-02-03T09:34:38;96818.84;;;6.54;86.96
52797;BME280;38666;43.348;12.584;2023-02-03T09:37:06;96827.69;;;6.79;85.82
52797;BME280;38666;43.348;12.584;2023-02-03T09:39:31;96836.03;;;6.86;85.79
52797;BME280;38666;43.348;12.584;2023-02-03T09:42:39;96841.84;;;6.44;88.03
52797;BME280;38666;43.348;12.584;2023-02-03T09:45:19;96856.56;;;6.43;90.62
52797;BME280;38666;43.348;12.584;2023-02-03T09:47:47;96854.94;;;6.54;89.21
52797;BME280;38666;43.348;12.584;2023-02-03T09:50:24;96848.88;;;6.32;91.07
52797;BME280;38666;43.348;12.584;2023-02-03T09:52:51;96845.53;;;6.64;92.48
52797;BME280;38666;43.348;12.584;2023-02-03T09:58:01;96850.03;;;7.17;89.12
52797;BME280;38666;43.348;12.584;2023-02-03T10:00:31;96848.19;;;7.38;85.23
52797;BME280;38666;43.348;12.584;2023-02-03T10:03:49;96827.16;;;7.18;85.93
52797;BME280;38666;43.348;12.584;2023-02-03T10:06:40;96828.56;;;7.28;87.78
52797;BME280;38666;43.348;12.584;2023-02-03T10:18:03;96810.06;;;7.18;87.49
52797;BME280;38666;43.348;12.584;2023-02-03T10:20:46;96814.09;;;7.08;87.77
52797;BME280;38666;43.348;12.584;2023-02-03T10:23:28;96826.41;;;7.05;88.66
52797;BME280;38666;43.348;12.584;2023-02-03T10:25:54;96824.97;;;6.79;89.58
52797;BME280;38666;43.348;12.584;2023-02-03T10:28:23;96829.25;;;6.80;90.71
52797;BME280;38666;43.348;12.584;2023-02-03T10:30:54;96836.94;;;6.91;91.92
52797;BME280;38666;43.348;12.584;2023-02-03T10:33:21;96827.81;;;6.99;91.47
52797;BME280;38666;43.348;12.584;2023-02-03T10:35:51;96821.66;;;6.86;90.08
52797;BME280;38666;43.348;12.584;2023-02-03T10:40:51;96803.31;;;7.12;90.09
52797;BME280;38666;43.348;12.584;2023-02-03T10:43:17;96794.19;;;7.20;90.43
52797;BME280;38666;43.348;12.584;2023-02-03T10:46:01;96787.19;;;7.19;90.54
52797;BME280;38666;43.348;12.584;2023-02-03T10:48:26;96784.06;;;6.72;92.61
52797;BME280;38666;43.348;12.584;2023-02-03T10:50:52;96773.84;;;6.53;93.36
52797;BME280;38666;43.348;12.584;2023-02-03T10:53:22;96779.38;;;6.56;96.16
52797;BME280;38666;43.348;12.584;2023-02-03T10:55:51;96783.38;;;6.18;97.31
52797;BME280;38666;43.348;12.584;2023-02-03T10:58:28;96797.63;;;5.77;100.00
52797;BME280;38666;43.348;12.584;2023-02-03T11:01:04;96782.06;;;5.61;100.00
52797;BME280;38666;43.348;12.584;2023-02-03T11:03:30;96778.44;;;5.95;100.00
52797;BME280;38666;43.348;12.584;2023-02-03T11:06:11;96765.84;;;6.02;99.58
52797;BME280;38666;43.348;12.584;2023-02-03T11:08:40;96769.75;;;5.76;100.00
52797;BME280;38666;43.348;12.584;2023-02-03T11:11:08;96770.75;;;5.72;100.00
52797;BME280;38666;43.348;12.584;2023-02-03T11:13:34;96766.72;;;5.65;100.00
52797;BME280;38666;43.348;12.584;2023-02-03T11:16:12;96766.59;;;5.37;100.00
52797;BME280;38666;43.348;12.584;2023-02-03T11:24:28;96757.59;;;5.99;100.00
52797;BME280;38666;43.348;12.584;2023-02-03T11:27:05;96759.41;;;6.07;100.00
52797;BME280;38666;43.348;12.584;2023-02-03T11:29:35;96763.19;;;6.31;100.00
52797;BME280;38666;43.348;12.584;2023-02-03T11:32:34;96773.19;;;6.02;100.00
52797;BME280;38666;43.348;12.584;2023-02-03T11:35:11;96783.94;;;5.98;100.00
52797;BME280;38666;43.348;12.584;2023-02-03T11:37:44;96780.88;;;6.25;99.96
52797;BME280;38666;43.348;12.584;2023-02-03T11:40:22;96772.56;;;6.62;98.25
52797;BME280;38666;43.348;12.584;2023-02-03T12:05:04;96745.09;;;6.80;96.26
52797;BME280;38666;43.348;12.584;2023-02-03T12:12:57;96736.66;;;7.50;89.33
52797;BME280;38666;43.348;12.584;2023-02-03T12:20:53;96721.94;;;8.66;80.55
52797;BME280;38666;43.348;12.584;2023-02-03T12:26:38;96718.63;;;9.00;78.66
52797;BME280;38666;43.348;12.584;2023-02-03T12:31:22;96707.63;;;13.16;62.84
52797;BME280;38666;43.348;12.584;2023-02-03T12:36:47;96683.75;;;12.98;55.17
52797;BME280;38666;43.348;12.584;2023-02-03T12:39:23;96660.16;;;12.32;55.89
52797;BME280;38666;43.348;12.584;2023-02-03T12:41:59;96669.63;;;13.55;53.66
52797;BME280;38666;43.348;12.584;2023-02-03T12:44:32;96664.91;;;14.52;49.43
52797;BME280;38666;43.348;12.584;2023-02-03T12:47:26;96670.00;;;13.50;51.62
52797;BME280;38666;43.348;12.584;2023-02-03T12:49:58;96661.81;;;11.62;55.90
52797;BME280;38666;43.348;12.584;2023-02-03T12:52:25;96663.50;;;10.68;62.22
52797;BME280;38666;43.348;12.584;2023-02-03T12:55:07;96663.03;;;10.59;64.17
52797;BME280;38666;43.348;12.584;2023-02-03T13:00:23;96677.75;;;11.49;66.63
52797;BME280;38666;43.348;12.584;2023-02-03T13:08:11;96664.31;;;9.69;70.18
52797;BME280;38666;43.348;12.584;2023-02-03T13:10:45;96656.88;;;9.97;67.58
52797;BME280;38666;43.348;12.584;2023-02-03T13:13:14;96666.25;;;9.99;67.13
52797;BME280;38666;43.348;12.584;2023-02-03T13:15:44;96673.97;;;9.94;68.15
52797;BME280;38666;43.348;12.584;2023-02-03T13:20:51;96664.91;;;9.55;69.59
52797;BME280;38666;43.348;12.584;2023-02-03T13:23:16;96667.31;;;9.60;68.54
52797;BME280;38666;43.348;12.584;2023-02-03T13:34:28;96666.31;;;9.72;69.00
52797;BME280;38666;43.348;12.584;2023-02-03T13:37:25;96645.91;;;9.32;71.70
52797;BME280;38666;43.348;12.584;2023-02-03T13:42:36;96639.31;;;14.63;53.34
52797;BME280;38666;43.348;12.584;2023-02-03T13:45:29;96622.50;;;16.98;44.56
52797;BME280;38666;43.348;12.584;2023-02-03T13:48:04;96626.13;;;16.12;45.41
52797;BME280;38666;43.348;12.584;2023-02-03T13:50:32;96628.09;;;13.34;51.23
52797;BME280;38666;43.348;12.584;2023-02-03T13:53:02;96625.38;;;13.12;51.97
52797;BME280;38666;43.348;12.584;2023-02-03T13:55:40;96623.00;;;13.22;53.11
52797;BME280;38666;43.348;12.584;2023-02-03T13:58:20;96632.06;;;12.64;54.84
52797;BME280;38666;43.348;12.584;2023-02-03T14:04:02;96625.00;;;12.81;55.09
52797;BME280;38666;43.348;12.584;2023-02-03T14:06:02;96630.50;;;13.03;53.73
52797;BME280;38666;43.348;12.584;2023-02-03T14:22:04;96623.41;;;12.40;55.13
52797;BME280;38666;43.348;12.584;2023-02-03T14:24:34;96619.50;;;12.74;55.63
52797;BME280;38666;43.348;12.584;2023-02-03T14:27:04;96618.72;;;12.55;53.82
52797;BME280;38666;43.348;12.584;2023-02-03T14:29:32;96619.53;;;11.44;57.62
52797;BME280;38666;43.348;12.584;2023-02-03T14:32:15;96615.25;;;11.51;59.61
52797;BME280;38666;43.348;12.584;2023-02-03T14:34:44;96606.94;;;14.28;51.18
52797;BME280;38666;43.348;12.584;2023-02-03T14:48:10;96573.41;;;17.33;40.84
52797;BME280;38666;43.348;12.584;2023-02-03T14:58:56;96592.41;;;14.92;46.41
52797;BME280;38666;43.348;12.584;2023-02-03T15:06:49;96596.00;;;16.53;42.43
52797;BME280;38666;43.348;12.584;2023-02-03T15:09:38;96591.81;;;16.72;42.97
52797;BME280;38666;43.348;12.584;2023-02-03T15:12:22;96583.59;;;16.13;43.20
52797;BME280;38666;43.348;12.584;2023-02-03T15:14:48;96575.00;;;16.87;42.44
52797;BME280;38666;43.348;12.584;2023-02-03T15:17:26;96579.22;;;17.60;40.27
52797;BME280;38666;43.348;12.584;2023-02-03T15:19:52;96590.03;;;17.06;41.31
52797;BME280;38666;43.348;12.584;2023-02-03T15:22:26;96583.28;;;15.72;43.61
52797;BME280;38666;43.348;12.584;2023-02-03T15:24:59;96589.47;;;15.10;46.00
52797;BME280;38666;43.348;12.584;2023-02-03T15:27:29;96588.69;;;15.10;45.83
52797;BME280;38666;43.348;12.584;2023-02-03T15:29:55;96580.56;;;14.46;47.14
52797;BME280;38666;43.348;12.584;2023-02-03T15:32:38;96591.78;;;14.02;49.39
52797;BME280;38666;43.348;12.584;2023-02-03T15:35:10;96579.34;;;14.50;47.81
52797;BME280;38666;43.348;12.584;2023-02-03T15:37:50;96580.34;;;14.71;47.56
52797;BME280;38666;43.348;12.584;2023-02-03T15:40:20;96577.88;;;14.35;48.03
52797;BME280;38666;43.348;12.584;2023-02-03T15:48:22;96574.06;;;12.22;53.74
52797;BME280;38666;43.348;12.584;2023-02-03T15:50:55;96570.19;;;12.37;54.82
52797;BME280;38666;43.348;12.584;2023-02-03T15:53:29;96574.06;;;12.29;54.11
52797;BME280;38666;43.348;12.584;2023-02-03T15:55:59;96572.34;;;11.70;55.85
52797;BME280;38666;43.348;12.584;2023-02-03T15:58:27;96581.53;;;11.25;56.96
52797;BME280;38666;43.348;12.584;2023-02-03T16:00:59;96584.03;;;10.43;61.47
52797;BME280;38666;43.348;12.584;2023-02-03T16:03:33;96574.19;;;10.31;62.28
52797;BME280;38666;43.348;12.584;2023-02-03T16:08:45;96569.16;;;9.30;69.13
52797;BME280;38666;43.348;12.584;2023-02-03T16:11:31;96563.38;;;9.04;71.18
52797;BME280;38666;43.348;12.584;2023-02-03T16:14:43;96561.75;;;8.99;71.56
52797;BME280;38666;43.348;12.584;2023-02-03T16:16:50;96562.97;;;9.02;71.49
52797;BME280;38666;43.348;12.584;2023-02-03T16:19:20;96561.88;;;8.79;73.43
52797;BME280;38666;43.348;12.584;2023-02-03T16:21:51;96563.00;;;8.55;75.53
52797;BME280;38666;43.348;12.584;2023-02-03T16:24:39;96567.09;;;8.65;75.25
52797;BME280;38666;43.348;12.584;2023-02-03T16:29:54;96558.00;;;8.34;77.33
52797;BME280;38666;43.348;12.584;2023-02-03T16:35:54;96566.34;;;7.98;80.94
52797;BME280;38666;43.348;12.584;2023-02-03T16:38:44;96573.44;;;7.82;83.19
52797;BME280;38666;43.348;12.584;2023-02-03T16:41:27;96569.16;;;7.81;82.30
52797;BME280;38666;43.348;12.584;2023-02-03T16:44:11;96571.16;;;7.85;81.89
52797;BME280;38666;43.348;12.584;2023-02-03T16:46:55;96572.56;;;7.78;81.97
52797;BME280;38666;43.348;12.584;2023-02-03T16:49:39;96569.94;;;7.62;83.77
52797;BME280;38666;43.348;12.584;2023-02-03T16:52:23;96560.56;;;7.40;85.23
52797;BME280;38666;43.348;12.584;2023-02-03T16:54:48;96569.28;;;7.29;86.68
52797;BME280;38666;43.348;12.584;2023-02-03T16:57:14;96566.50;;;7.26;87.29
52797;BME280;38666;43.348;12.584;2023-02-03T16:59:39;96573.41;;;7.23;87.37
52797;BME280;38666;43.348;12.584;2023-02-03T17:02:05;96572.44;;;7.31;87.38
52797;BME280;38666;43.348;12.584;2023-02-03T17:04:31;96570.84;;;7.30;87.21
52797;BME280;38666;43.348;12.584;2023-02-03T17:06:57;96570.44;;;7.28;87.84
52797;BME280;38666;43.348;12.584;2023-02-03T17:09:22;96575.28;;;7.19;88.29
52797;BME280;38666;43.348;12.584;2023-02-03T17:11:49;96603.69;;;7.05;89.78
52797;BME280;38666;43.348;12.584;2023-02-03T17:14:15;96596.34;;;7.06;90.17
52797;BME280;38666;43.348;12.584;2023-02-03T17:16:41;96583.41;;;6.99;90.53
52797;BME280;38666;43.348;12.584;2023-02-03T17:19:10;96582.69;;;7.02;90.31
52797;BME280;38666;43.348;12.584;2023-02-03T17:21:36;96576.13;;;7.03;90.74
52797;BME280;38666;43.348;12.584;2023-02-03T17:24:02;96559.94;;;6.91;91.04
52797;BME280;38666;43.348;12.584;2023-02-03T17:26:27;96566.06;;;6.88;91.56
52797;BME280;38666;43.348;12.584;2023-02-03T17:28:53;96576.91;;;6.88;92.16
52797;BME280;38666;43.348;12.584;2023-02-03T17:31:19;96581.66;;;6.91;91.37
52797;BME280;38666;43.348;12.584;2023-02-03T17:33:49;96572.44;;;6.95;91.26
52797;BME280;38666;43.348;12.584;2023-02-03T17:36:17;96559.94;;;6.91;91.40
52797;BME280;38666;43.348;12.584;2023-02-03T17:38:46;96562.22;;;6.89;91.35
52797;BME280;38666;43.348;12.584;2023-02-03T17:41:14;96565.56;;;6.82;91.93
52797;BME280;38666;43.348;12.584;2023-02-03T17:43:40;96563.78;;;6.90;91.67
52797;BME280;38666;43.348;12.584;2023-02-03T17:46:07;96557.84;;;6.84;91.59
52797;BME280;38666;43.348;12.584;2023-02-03T17:48:34;96551.91;;;6.78;92.44
52797;BME280;38666;43.348;12.584;2023-02-03T17:53:31;96550.41;;;6.81;92.51
52797;BME280;38666;43.348;12.584;2023-02-03T17:55:57;96555.81;;;6.81;92.91
52797;BME280;38666;43.348;12.584;2023-02-03T17:58:22;96562.69;;;6.74;93.74
52797;BME280;38666;43.348;12.584;2023-02-03T18:00:48;96558.66;;;6.68;93.14
52797;BME280;38666;43.348;12.584;2023-02-03T18:03:13;96554.66;;;6.62;94.00
52797;BME280;38666;43.348;12.584;2023-02-03T18:05:48;96550.78;;;6.63;93.78
52797;BME280;38666;43.348;12.584;2023-02-03T18:08:14;96540.72;;;6.64;93.81
52797;BME280;38666;43.348;12.584;2023-02-03T18:10:39;96543.69;;;6.58;94.17
52797;BME280;38666;43.348;12.584;2023-02-03T18:13:04;96546.69;;;6.53;95.17
52797;BME280;38666;43.348;12.584;2023-02-03T18:15:30;96534.94;;;6.49;96.24
52797;BME280;38666;43.348;12.584;2023-02-03T18:17:57;96528.63;;;6.45;95.60
52797;BME280;38666;43.348;12.584;2023-02-03T18:20:22;96529.44;;;6.45;95.80
52797;BME280;38666;43.348;12.584;2023-02-03T18:22:48;96527.16;;;6.47;95.76
52797;BME280;38666;43.348;12.584;2023-02-03T18:25:13;96525.16;;;6.44;96.33
52797;BME280;38666;43.348;12.584;2023-02-03T18:27:41;96517.78;;;6.45;96.25
52797;BME280;38666;43.348;12.584;2023-02-03T18:30:07;96517.38;;;6.43;96.65
52797;BME280;38666;43.348;12.584;2023-02-03T18:32:35;96514.56;;;6.39;96.95
52797;BME280;38666;43.348;12.584;2023-02-03T18:35:01;96501.78;;;6.40;96.07
52797;BME280;38666;43.348;12.584;2023-02-03T18:37:27;96517.63;;;6.37;97.53
52797;BME280;38666;43.348;12.584;2023-02-03T18:39:52;96524.63;;;6.38;97.44
52797;BME280;38666;43.348;12.584;2023-02-03T18:42:17;96527.00;;;6.40;97.71
52797;BME280;38666;43.348;12.584;2023-02-03T18:44:43;96523.84;;;6.38;97.67
52797;BME280;38666;43.348;12.584;2023-02-03T18:47:08;96533.31;;;6.44;97.34
52797;BME280;38666;43.348;12.584;2023-02-03T18:49:35;96527.16;;;6.47;97.09
